sensor_id;sensor_type;location;lat;lon;timestamp;pressure;altitude;pressure_sealevel;temperature;humidity
58698;BME280;44475;53.206;-6.106;2023-07-29T00:01:34;100010.59;;;24.92;48.00
58698;BME280;44475;53.206;-6.106;2023-07-29T00:04:02;100007.00;;;25.00;47.73
58698;BME280;44475;53.206;-6.106;2023-07-29T00:06:28;100003.56;;;24.97;47.91
58698;BME280;44475;53.206;-6.106;2023-07-29T00:08:55;100006.28;;;24.97;47.94
58698;BME280;44475;53.206;-6.106;2023-07-29T00:11:21;100000.66;;;24.99;47.74
58698;BME280;44475;53.206;-6.106;2023-07-29T00:13:47;100012.16;;;25.03;47.81
58698;BME280;44475;53.206;-6.106;2023-07-29T00:16:16;100000.81;;;24.97;48.08
58698;BME280;44475;53.206;-6.106;2023-07-29T00:18:43;99997.22;;;24.97;48.07
58698;BME280;44475;53.206;-6.106;2023-07-29T00:21:10;99993.47;;;24.98;47.90
58698;BME280;44475;53.206;-6.106;2023-07-29T00:23:36;99993.47;;;24.98;48.13
58698;BME280;44475;53.206;-6.106;2023-07-29T00:26:02;99989.00;;;24.97;48.06
58698;BME280;44475;53.206;-6.106;2023-07-29T00:28:28;99985.22;;;24.98;47.89
58698;BME280;44475;53.206;-6.106;2023-07-29T00:30:55;99987.81;;;25.00;47.94
58698;BME280;44475;53.206;-6.106;2023-07-29T00:33:21;99974.28;;;24.98;47.83
58698;BME280;44475;53.206;-6.106;2023-07-29T00:35:47;99975.28;;;24.97;47.91
58698;BME280;44475;53.206;-6.106;2023-07-29T00:38:14;99983.69;;;24.95;47.88
58698;BME280;44475;53.206;-6.106;2023-07-29T00:40:40;99983.34;;;24.98;47.90
58698;BME280;44475;53.206;-6.106;2023-07-29T00:43:06;99976.50;;;24.94;48.26
58698;BME280;44475;53.206;-6.106;2023-07-29T00:45:35;99972.72;;;24.95;48.09
58698;BME280;44475;53.206;-6.106;2023-07-29T00:48:02;99976.69;;;24.93;47.77
58698;BME280;44475;53.206;-6.106;2023-07-29T00:50:30;99982.50;;;24.98;47.89
58698;BME280;44475;53.206;-6.106;2023-07-29T00:52:59;99969.81;;;24.97;47.78
58698;BME280;44475;53.206;-6.106;2023-07-29T00:55:26;99975.66;;;24.94;47.67
58698;BME280;44475;53.206;-6.106;2023-07-29T00:57:54;99970.19;;;24.94;47.91
58698;BME280;44475;53.206;-6.106;2023-07-29T01:00:21;99971.88;;;24.95;47.74
58698;BME280;44475;53.206;-6.106;2023-07-29T01:02:48;99979.06;;;24.96;47.76
58698;BME280;44475;53.206;-6.106;2023-07-29T01:05:16;99977.66;;;24.75;48.50
58698;BME280;44475;53.206;-6.106;2023-07-29T01:10:29;99975.97;;;24.30;47.13
58698;BME280;44475;53.206;-6.106;2023-07-29T01:15:48;99982.00;;;23.53;44.42
58698;BME280;44475;53.206;-6.106;2023-07-29T01:18:26;99978.19;;;23.27;44.71
58698;BME280;44475;53.206;-6.106;2023-07-29T01:20:58;99982.81;;;23.08;44.63
58698;BME280;44475;53.206;-6.106;2023-07-29T01:23:35;99981.25;;;22.87;45.40
58698;BME280;44475;53.206;-6.106;2023-07-29T01:26:02;99984.56;;;22.81;45.29
58698;BME280;44475;53.206;-6.106;2023-07-29T01:28:29;99983.28;;;22.75;45.39
58698;BME280;44475;53.206;-6.106;2023-07-29T01:31:12;99980.03;;;22.43;45.87
58698;BME280;44475;53.206;-6.106;2023-07-29T01:33:45;99978.31;;;22.42;45.96
58698;BME280;44475;53.206;-6.106;2023-07-29T01:36:18;99967.59;;;22.30;46.21
58698;BME280;44475;53.206;-6.106;2023-07-29T01:38:47;99970.88;;;22.34;45.83
58698;BME280;44475;53.206;-6.106;2023-07-29T01:41:14;99976.66;;;22.31;46.03
58698;BME280;44475;53.206;-6.106;2023-07-29T01:43:41;99961.03;;;22.23;45.92
58698;BME280;44475;53.206;-6.106;2023-07-29T01:46:11;99972.47;;;22.37;45.95
58698;BME280;44475;53.206;-6.106;2023-07-29T01:48:40;99970.31;;;22.30;46.15
58698;BME280;44475;53.206;-6.106;2023-07-29T01:51:07;99965.69;;;22.41;46.01
58698;BME280;44475;53.206;-6.106;2023-07-29T01:53:33;99967.56;;;22.40;46.10
58698;BME280;44475;53.206;-6.106;2023-07-29T01:56:01;99972.75;;;22.34;45.87
58698;BME280;44475;53.206;-6.106;2023-07-29T01:58:28;99975.75;;;22.40;46.15
58698;BME280;44475;53.206;-6.106;2023-07-29T02:00:54;99979.31;;;22.41;45.80
58698;BME280;44475;53.206;-6.106;2023-07-29T02:03:20;99977.63;;;22.40;45.74
58698;BME280;44475;53.206;-6.106;2023-07-29T02:05:47;99992.59;;;22.36;45.98
58698;BME280;44475;53.206;-6.106;2023-07-29T02:08:13;99990.63;;;22.28;46.16
58698;BME280;44475;53.206;-6.106;2023-07-29T02:10:40;99988.75;;;21.70;48.27
58698;BME280;44475;53.206;-6.106;2023-07-29T02:13:06;99991.88;;;21.85;48.28
58698;BME280;44475;53.206;-6.106;2023-07-29T02:15:33;99995.13;;;21.99;47.65
58698;BME280;44475;53.206;-6.106;2023-07-29T02:17:59;99994.56;;;21.95;47.14
58698;BME280;44475;53.206;-6.106;2023-07-29T02:20:27;99998.31;;;21.94;47.05
58698;BME280;44475;53.206;-6.106;2023-07-29T02:22:53;99997.06;;;21.68;48.13
58698;BME280;44475;53.206;-6.106;2023-07-29T02:25:19;100010.72;;;21.58;48.00
58698;BME280;44475;53.206;-6.106;2023-07-29T02:27:46;99997.22;;;21.57;48.24
58698;BME280;44475;53.206;-6.106;2023-07-29T02:30:12;100001.50;;;21.69;47.53
58698;BME280;44475;53.206;-6.106;2023-07-29T02:32:39;99998.22;;;21.76;47.61
58698;BME280;44475;53.206;-6.106;2023-07-29T02:35:05;99999.69;;;21.50;46.83
58698;BME280;44475;53.206;-6.106;2023-07-29T02:37:31;99991.50;;;21.50;46.60
58698;BME280;44475;53.206;-6.106;2023-07-29T02:39:58;99995.50;;;21.46;47.29
58698;BME280;44475;53.206;-6.106;2023-07-29T02:42:24;99994.22;;;21.60;46.94
58698;BME280;44475;53.206;-6.106;2023-07-29T02:44:50;99995.06;;;21.70;46.67
58698;BME280;44475;53.206;-6.106;2023-07-29T02:47:17;99984.34;;;21.49;47.25
58698;BME280;44475;53.206;-6.106;2023-07-29T02:49:43;99986.31;;;21.57;47.37
58698;BME280;44475;53.206;-6.106;2023-07-29T02:52:09;99985.03;;;21.61;46.94
58698;BME280;44475;53.206;-6.106;2023-07-29T02:54:35;99991.34;;;21.62;47.04
58698;BME280;44475;53.206;-6.106;2023-07-29T02:57:02;99991.34;;;21.62;46.98
58698;BME280;44475;53.206;-6.106;2023-07-29T02:59:28;99994.50;;;21.57;46.94
58698;BME280;44475;53.206;-6.106;2023-07-29T03:01:54;99993.38;;;21.49;46.87
58698;BME280;44475;53.206;-6.106;2023-07-29T03:04:20;99988.06;;;21.48;46.94
58698;BME280;44475;53.206;-6.106;2023-07-29T03:06:47;99988.81;;;21.20;47.03
58698;BME280;44475;53.206;-6.106;2023-07-29T03:09:14;99986.50;;;21.35;47.03
58698;BME280;44475;53.206;-6.106;2023-07-29T03:11:40;99992.94;;;21.14;47.27
58698;BME280;44475;53.206;-6.106;2023-07-29T03:14:06;99989.66;;;21.20;46.71
58698;BME280;44475;53.206;-6.106;2023-07-29T03:16:33;99988.53;;;21.13;46.74
58698;BME280;44475;53.206;-6.106;2023-07-29T03:19:00;99992.81;;;21.16;46.99
58698;BME280;44475;53.206;-6.106;2023-07-29T03:21:27;99985.47;;;21.06;47.04
58698;BME280;44475;53.206;-6.106;2023-07-29T03:23:53;99977.16;;;20.88;46.69
58698;BME280;44475;53.206;-6.106;2023-07-29T03:26:19;99982.31;;;21.01;47.27
58698;BME280;44475;53.206;-6.106;2023-07-29T03:28:46;99981.47;;;21.10;46.89
58698;BME280;44475;53.206;-6.106;2023-07-29T03:31:12;99976.41;;;20.76;47.44
58698;BME280;44475;53.206;-6.106;2023-07-29T03:33:39;99982.72;;;20.86;48.01
58698;BME280;44475;53.206;-6.106;2023-07-29T03:36:05;99987.66;;;21.33;46.97
58698;BME280;44475;53.206;-6.106;2023-07-29T03:38:32;99980.19;;;21.55;46.42
58698;BME280;44475;53.206;-6.106;2023-07-29T03:41:01;99977.72;;;21.62;46.29
58698;BME280;44475;53.206;-6.106;2023-07-29T03:43:29;99979.56;;;21.71;45.52
58698;BME280;44475;53.206;-6.106;2023-07-29T03:45:57;99978.13;;;21.77;45.30
58698;BME280;44475;53.206;-6.106;2023-07-29T03:48:23;99975.09;;;21.80;45.22
58698;BME280;44475;53.206;-6.106;2023-07-29T03:50:49;99976.81;;;21.81;45.12
58698;BME280;44475;53.206;-6.106;2023-07-29T03:53:15;99971.22;;;21.83;45.03
58698;BME280;44475;53.206;-6.106;2023-07-29T03:55:43;99979.25;;;21.84;44.98
58698;BME280;44475;53.206;-6.106;2023-07-29T03:58:09;99971.22;;;21.83;46.09
58698;BME280;44475;53.206;-6.106;2023-07-29T04:00:36;99974.47;;;22.06;46.43
58698;BME280;44475;53.206;-6.106;2023-07-29T04:03:02;99973.38;;;22.27;46.50
58698;BME280;44475;53.206;-6.106;2023-07-29T04:05:28;99961.84;;;22.34;46.46
58698;BME280;44475;53.206;-6.106;2023-07-29T04:07:54;99961.25;;;22.40;46.89
58698;BME280;44475;53.206;-6.106;2023-07-29T04:10:21;99956.81;;;22.39;46.79
58698;BME280;44475;53.206;-6.106;2023-07-29T04:12:47;99962.28;;;22.57;47.10
58698;BME280;44475;53.206;-6.106;2023-07-29T04:15:13;99957.94;;;22.65;46.73
58698;BME280;44475;53.206;-6.106;2023-07-29T04:17:40;99951.69;;;22.73;46.81
58698;BME280;44475;53.206;-6.106;2023-07-29T04:20:06;99956.47;;;22.70;46.92
58698;BME280;44475;53.206;-6.106;2023-07-29T04:22:34;99957.97;;;22.83;46.74
58698;BME280;44475;53.206;-6.106;2023-07-29T04:25:00;99951.75;;;22.91;47.12
58698;BME280;44475;53.206;-6.106;2023-07-29T04:27:26;99956.34;;;22.91;47.14
58698;BME280;44475;53.206;-6.106;2023-07-29T04:29:53;99961.81;;;23.09;47.00
58698;BME280;44475;53.206;-6.106;2023-07-29T04:32:19;99962.97;;;23.25;47.07
58698;BME280;44475;53.206;-6.106;2023-07-29T04:34:45;99960.91;;;23.27;46.69
58698;BME280;44475;53.206;-6.106;2023-07-29T04:37:11;99964.66;;;23.26;46.84
58698;BME280;44475;53.206;-6.106;2023-07-29T04:39:38;99961.88;;;23.36;46.78
58698;BME280;44475;53.206;-6.106;2023-07-29T04:42:04;99964.91;;;23.33;46.83
58698;BME280;44475;53.206;-6.106;2023-07-29T04:44:31;99966.28;;;23.37;46.82
58698;BME280;44475;53.206;-6.106;2023-07-29T04:46:57;99962.78;;;23.45;46.46
58698;BME280;44475;53.206;-6.106;2023-07-29T04:49:23;99968.78;;;23.48;46.37
58698;BME280;44475;53.206;-6.106;2023-07-29T04:51:49;99974.59;;;23.45;46.45
58698;BME280;44475;53.206;-6.106;2023-07-29T04:54:15;99969.31;;;23.52;46.76
58698;BME280;44475;53.206;-6.106;2023-07-29T04:56:42;99975.66;;;23.53;46.46
58698;BME280;44475;53.206;-6.106;2023-07-29T04:59:08;99975.72;;;23.61;46.52
58698;BME280;44475;53.206;-6.106;2023-07-29T05:01:34;99982.03;;;23.62;46.61
58698;BME280;44475;53.206;-6.106;2023-07-29T05:04:01;99983.84;;;23.71;46.25
58698;BME280;44475;53.206;-6.106;2023-07-29T05:06:27;99977.50;;;23.71;46.23
58698;BME280;44475;53.206;-6.106;2023-07-29T05:08:56;99976.34;;;23.73;46.20
58698;BME280;44475;53.206;-6.106;2023-07-29T05:11:27;99985.94;;;23.77;46.38
58698;BME280;44475;53.206;-6.106;2023-07-29T05:13:53;99981.50;;;23.76;46.37
58698;BME280;44475;53.206;-6.106;2023-07-29T05:16:20;99978.25;;;23.81;46.34
58698;BME280;44475;53.206;-6.106;2023-07-29T05:18:46;99983.03;;;23.79;46.44
58698;BME280;44475;53.206;-6.106;2023-07-29T05:21:12;99988.50;;;23.79;46.11
58698;BME280;44475;53.206;-6.106;2023-07-29T05:23:41;99978.09;;;23.83;46.31
58698;BME280;44475;53.206;-6.106;2023-07-29T05:26:07;99974.50;;;23.82;46.06
58698;BME280;44475;53.206;-6.106;2023-07-29T05:28:33;99976.94;;;23.85;46.17
58698;BME280;44475;53.206;-6.106;2023-07-29T05:31:01;99988.72;;;23.86;46.08
58698;BME280;44475;53.206;-6.106;2023-07-29T05:33:28;99986.00;;;23.86;46.23
58698;BME280;44475;53.206;-6.106;2023-07-29T05:35:55;99985.13;;;23.85;46.28
58698;BME280;44475;53.206;-6.106;2023-07-29T05:38:21;99980.38;;;23.87;46.31
58698;BME280;44475;53.206;-6.106;2023-07-29T05:40:49;99977.28;;;23.91;46.16
58698;BME280;44475;53.206;-6.106;2023-07-29T05:43:15;99980.88;;;23.91;45.87
58698;BME280;44475;53.206;-6.106;2023-07-29T05:45:41;99978.16;;;23.91;46.21
58698;BME280;44475;53.206;-6.106;2023-07-29T05:48:07;99975.09;;;23.94;46.14
58698;BME280;44475;53.206;-6.106;2023-07-29T05:50:34;99969.63;;;23.94;46.29
58698;BME280;44475;53.206;-6.106;2023-07-29T05:53:00;99973.22;;;23.95;46.20
58698;BME280;44475;53.206;-6.106;2023-07-29T05:55:27;99967.44;;;23.98;46.24
58698;BME280;44475;53.206;-6.106;2023-07-29T05:57:53;99974.63;;;23.99;46.30
58698;BME280;44475;53.206;-6.106;2023-07-29T06:00:21;99979.03;;;24.00;46.04
58698;BME280;44475;53.206;-6.106;2023-07-29T06:02:48;99979.75;;;24.02;45.92
58698;BME280;44475;53.206;-6.106;2023-07-29T06:05:19;99967.63;;;24.05;46.01
58698;BME280;44475;53.206;-6.106;2023-07-29T06:07:46;99975.69;;;24.06;45.98
58698;BME280;44475;53.206;-6.106;2023-07-29T06:10:15;99966.75;;;24.04;46.17
58698;BME280;44475;53.206;-6.106;2023-07-29T06:12:45;99967.63;;;24.05;46.29
58698;BME280;44475;53.206;-6.106;2023-07-29T06:15:12;99958.56;;;24.04;46.11
58698;BME280;44475;53.206;-6.106;2023-07-29T06:17:39;99963.16;;;24.04;46.26
58698;BME280;44475;53.206;-6.106;2023-07-29T06:20:07;99954.81;;;24.05;46.32
58698;BME280;44475;53.206;-6.106;2023-07-29T06:22:33;99953.63;;;24.08;46.50
58698;BME280;44475;53.206;-6.106;2023-07-29T06:24:59;99956.56;;;24.15;46.10
58698;BME280;44475;53.206;-6.106;2023-07-29T06:27:26;99966.44;;;24.07;46.31
58698;BME280;44475;53.206;-6.106;2023-07-29T06:29:52;99973.28;;;24.12;46.04
58698;BME280;44475;53.206;-6.106;2023-07-29T06:32:18;99973.44;;;24.10;45.92
58698;BME280;44475;53.206;-6.106;2023-07-29T06:34:45;99976.72;;;24.14;45.80
58698;BME280;44475;53.206;-6.106;2023-07-29T06:37:11;99981.50;;;24.12;45.98
58698;BME280;44475;53.206;-6.106;2023-07-29T06:39:38;99975.88;;;24.13;46.06
58698;BME280;44475;53.206;-6.106;2023-07-29T06:42:04;99967.66;;;24.13;46.17
58698;BME280;44475;53.206;-6.106;2023-07-29T06:44:30;99972.44;;;24.11;46.12
58698;BME280;44475;53.206;-6.106;2023-07-29T06:46:58;99976.56;;;24.15;45.93
58698;BME280;44475;53.206;-6.106;2023-07-29T06:49:24;99988.22;;;24.17;46.00
58698;BME280;44475;53.206;-6.106;2023-07-29T06:51:50;99981.19;;;24.15;45.90
58698;BME280;44475;53.206;-6.106;2023-07-29T06:54:17;99987.34;;;24.17;46.23
58698;BME280;44475;53.206;-6.106;2023-07-29T06:56:43;99989.06;;;24.18;46.09
58698;BME280;44475;53.206;-6.106;2023-07-29T06:59:09;99989.94;;;24.18;45.94
58698;BME280;44475;53.206;-6.106;2023-07-29T07:01:36;100005.50;;;24.18;45.97
58698;BME280;44475;53.206;-6.106;2023-07-29T07:04:02;100006.69;;;24.15;45.88
58698;BME280;44475;53.206;-6.106;2023-07-29T07:06:28;100002.75;;;24.18;45.87
58698;BME280;44475;53.206;-6.106;2023-07-29T07:08:54;99992.69;;;24.18;45.76
58698;BME280;44475;53.206;-6.106;2023-07-29T07:11:20;99993.88;;;24.24;45.84
58698;BME280;44475;53.206;-6.106;2023-07-29T07:13:47;99996.94;;;24.21;45.77
58698;BME280;44475;53.206;-6.106;2023-07-29T07:16:13;100000.53;;;24.22;45.94
58698;BME280;44475;53.206;-6.106;2023-07-29T07:18:39;99990.13;;;24.25;45.86
58698;BME280;44475;53.206;-6.106;2023-07-29T07:21:05;99986.53;;;24.25;46.00
58698;BME280;44475;53.206;-6.106;2023-07-29T07:23:32;99995.59;;;24.25;45.80
58698;BME280;44475;53.206;-6.106;2023-07-29T07:25:58;99996.47;;;24.26;45.90
58698;BME280;44475;53.206;-6.106;2023-07-29T07:28:24;99988.25;;;24.26;45.83
58698;BME280;44475;53.206;-6.106;2023-07-29T07:30:51;99996.47;;;24.26;45.97
58698;BME280;44475;53.206;-6.106;2023-07-29T07:33:17;99982.63;;;24.27;45.99
58698;BME280;44475;53.206;-6.106;2023-07-29T07:35:43;99986.91;;;24.30;45.88
58698;BME280;44475;53.206;-6.106;2023-07-29T07:38:09;99995.28;;;24.28;45.84
58698;BME280;44475;53.206;-6.106;2023-07-29T07:40:36;99981.75;;;24.27;45.67
58698;BME280;44475;53.206;-6.106;2023-07-29T07:43:02;99990.84;;;24.27;45.73
58698;BME280;44475;53.206;-6.106;2023-07-29T07:45:28;99992.72;;;24.27;45.88
58698;BME280;44475;53.206;-6.106;2023-07-29T07:47:55;99992.56;;;24.28;46.00
58698;BME280;44475;53.206;-6.106;2023-07-29T07:50:22;99998.53;;;24.32;45.86
58698;BME280;44475;53.206;-6.106;2023-07-29T07:52:50;100000.25;;;24.33;45.68
58698;BME280;44475;53.206;-6.106;2023-07-29T07:55:16;100000.25;;;24.33;45.86
58698;BME280;44475;53.206;-6.106;2023-07-29T07:57:42;99994.09;;;24.31;45.65
58698;BME280;44475;53.206;-6.106;2023-07-29T08:00:09;99994.94;;;24.32;45.90
58698;BME280;44475;53.206;-6.106;2023-07-29T08:02:43;99998.72;;;24.31;45.99
58698;BME280;44475;53.206;-6.106;2023-07-29T08:05:09;99981.78;;;24.35;45.84
58698;BME280;44475;53.206;-6.106;2023-07-29T08:07:35;100002.81;;;24.35;45.93
58698;BME280;44475;53.206;-6.106;2023-07-29T08:10:02;100001.47;;;24.31;45.88
58698;BME280;44475;53.206;-6.106;2023-07-29T08:12:28;100019.41;;;24.33;45.82
58698;BME280;44475;53.206;-6.106;2023-07-29T08:14:55;100003.00;;;24.33;45.81
58698;BME280;44475;53.206;-6.106;2023-07-29T08:17:21;100004.72;;;24.34;46.00
58698;BME280;44475;53.206;-6.106;2023-07-29T08:19:47;100010.19;;;24.34;46.14
58698;BME280;44475;53.206;-6.106;2023-07-29T08:22:13;100011.03;;;24.35;45.88
58698;BME280;44475;53.206;-6.106;2023-07-29T08:24:39;99996.56;;;24.43;45.74
58698;BME280;44475;53.206;-6.106;2023-07-29T08:27:06;100007.50;;;24.43;45.62
58698;BME280;44475;53.206;-6.106;2023-07-29T08:29:32;100005.25;;;24.38;46.02
58698;BME280;44475;53.206;-6.106;2023-07-29T08:31:58;100009.38;;;24.42;45.99
58698;BME280;44475;53.206;-6.106;2023-07-29T08:34:25;100020.88;;;24.46;45.91
58698;BME280;44475;53.206;-6.106;2023-07-29T08:36:51;100018.66;;;24.41;46.07
58698;BME280;44475;53.206;-6.106;2023-07-29T08:39:17;99989.91;;;24.45;45.66
58698;BME280;44475;53.206;-6.106;2023-07-29T08:42:03;99998.63;;;24.41;45.72
58698;BME280;44475;53.206;-6.106;2023-07-29T08:44:45;100004.78;;;24.43;45.81
58698;BME280;44475;53.206;-6.106;2023-07-29T08:47:15;100005.00;;;24.50;45.91
58698;BME280;44475;53.206;-6.106;2023-07-29T08:49:43;100018.28;;;24.44;46.24
58698;BME280;44475;53.206;-6.106;2023-07-29T08:52:11;100008.38;;;24.43;46.12
58698;BME280;44475;53.206;-6.106;2023-07-29T08:54:38;100012.50;;;24.47;45.94
58698;BME280;44475;53.206;-6.106;2023-07-29T08:57:04;100016.81;;;24.50;45.85
58698;BME280;44475;53.206;-6.106;2023-07-29T08:59:32;100012.66;;;24.46;46.12
58698;BME280;44475;53.206;-6.106;2023-07-29T09:01:59;100006.00;;;24.48;46.22
58698;BME280;44475;53.206;-6.106;2023-07-29T09:04:25;100000.38;;;24.50;46.07
58698;BME280;44475;53.206;-6.106;2023-07-29T09:06:52;100014.38;;;24.47;46.13
58698;BME280;44475;53.206;-6.106;2023-07-29T09:09:20;100001.91;;;24.53;46.02
58698;BME280;44475;53.206;-6.106;2023-07-29T09:11:46;99999.16;;;24.53;45.81
58698;BME280;44475;53.206;-6.106;2023-07-29T09:14:14;99988.91;;;24.55;45.90
58698;BME280;44475;53.206;-6.106;2023-07-29T09:16:40;99983.78;;;24.52;46.07
58698;BME280;44475;53.206;-6.106;2023-07-29T09:19:07;99992.47;;;24.47;45.98
58698;BME280;44475;53.206;-6.106;2023-07-29T09:21:33;99982.41;;;24.56;45.87
58698;BME280;44475;53.206;-6.106;2023-07-29T09:24:03;99996.41;;;24.53;46.15
58698;BME280;44475;53.206;-6.106;2023-07-29T09:26:34;99984.63;;;24.52;46.32
58698;BME280;44475;53.206;-6.106;2023-07-29T09:29:00;99987.88;;;24.56;46.01
58698;BME280;44475;53.206;-6.106;2023-07-29T09:31:28;100001.72;;;24.54;46.13
58698;BME280;44475;53.206;-6.106;2023-07-29T09:34:02;100020.59;;;24.57;45.99
58698;BME280;44475;53.206;-6.106;2023-07-29T09:36:32;99987.03;;;24.55;46.09
58698;BME280;44475;53.206;-6.106;2023-07-29T09:38:58;100008.94;;;24.55;46.12
58698;BME280;44475;53.206;-6.106;2023-07-29T09:41:26;100005.88;;;24.58;46.26
58698;BME280;44475;53.206;-6.106;2023-07-29T09:43:57;99997.50;;;24.60;46.18
58698;BME280;44475;53.206;-6.106;2023-07-29T09:46:25;100018.88;;;24.56;46.24
58698;BME280;44475;53.206;-6.106;2023-07-29T09:48:54;100016.81;;;24.58;46.22
58698;BME280;44475;53.206;-6.106;2023-07-29T09:51:23;100011.50;;;24.57;46.12
58698;BME280;44475;53.206;-6.106;2023-07-29T09:53:51;100014.09;;;24.58;46.32
58698;BME280;44475;53.206;-6.106;2023-07-29T09:56:18;100018.88;;;24.65;46.06
58698;BME280;44475;53.206;-6.106;2023-07-29T09:58:50;100018.03;;;24.64;46.19
58698;BME280;44475;53.206;-6.106;2023-07-29T10:01:17;100013.25;;;24.66;46.26
58698;BME280;44475;53.206;-6.106;2023-07-29T10:03:44;100020.75;;;24.64;46.09
58698;BME280;44475;53.206;-6.106;2023-07-29T10:06:11;99993.19;;;24.49;46.09
58698;BME280;44475;53.206;-6.106;2023-07-29T10:08:39;100027.47;;;24.70;46.06
58698;BME280;44475;53.206;-6.106;2023-07-29T10:11:08;100034.84;;;24.70;46.04
58698;BME280;44475;53.206;-6.106;2023-07-29T10:13:35;100019.25;;;24.70;46.25
58698;BME280;44475;53.206;-6.106;2023-07-29T10:16:02;100033.81;;;24.71;46.24
58698;BME280;44475;53.206;-6.106;2023-07-29T10:18:29;100042.53;;;24.31;44.69
58698;BME280;44475;53.206;-6.106;2023-07-29T10:20:58;100041.56;;;23.86;46.16
58698;BME280;44475;53.206;-6.106;2023-07-29T10:23:32;100030.47;;;24.23;46.50
58698;BME280;44475;53.206;-6.106;2023-07-29T10:26:03;100028.09;;;24.20;46.55
58698;BME280;44475;53.206;-6.106;2023-07-29T10:28:31;100048.16;;;24.02;46.84
58698;BME280;44475;53.206;-6.106;2023-07-29T10:30:58;100046.66;;;24.08;46.99
58698;BME280;44475;53.206;-6.106;2023-07-29T10:33:26;100058.50;;;23.90;46.82
58698;BME280;44475;53.206;-6.106;2023-07-29T10:35:53;100046.44;;;24.01;47.06
58698;BME280;44475;53.206;-6.106;2023-07-29T10:38:22;100044.09;;;24.06;46.87
58698;BME280;44475;53.206;-6.106;2023-07-29T10:40:53;100047.34;;;24.10;46.73
58698;BME280;44475;53.206;-6.106;2023-07-29T10:43:32;100049.16;;;24.01;47.05
58698;BME280;44475;53.206;-6.106;2023-07-29T10:46:14;100058.03;;;23.95;47.51
58698;BME280;44475;53.206;-6.106;2023-07-29T10:48:43;100048.97;;;23.94;47.64
58698;BME280;44475;53.206;-6.106;2023-07-29T10:51:30;100056.59;;;24.09;46.89
58698;BME280;44475;53.206;-6.106;2023-07-29T10:54:00;100051.69;;;24.21;47.14
58698;BME280;44475;53.206;-6.106;2023-07-29T10:56:34;100059.66;;;24.06;47.26
58698;BME280;44475;53.206;-6.106;2023-07-29T11:01:50;100065.06;;;24.24;47.09
58698;BME280;44475;53.206;-6.106;2023-07-29T11:12:47;100077.28;;;24.12;47.64
58698;BME280;44475;53.206;-6.106;2023-07-29T11:17:48;100083.31;;;24.15;47.55
58698;BME280;44475;53.206;-6.106;2023-07-29T11:20:16;100083.41;;;24.05;47.78
58698;BME280;44475;53.206;-6.106;2023-07-29T11:22:42;100085.88;;;24.17;47.91
58698;BME280;44475;53.206;-6.106;2023-07-29T11:25:11;100097.81;;;24.07;47.85
58698;BME280;44475;53.206;-6.106;2023-07-29T11:27:38;100088.81;;;24.24;47.56
58698;BME280;44475;53.206;-6.106;2023-07-29T11:30:07;100084.53;;;24.21;47.80
58698;BME280;44475;53.206;-6.106;2023-07-29T11:32:38;100095.66;;;24.19;47.99
58698;BME280;44475;53.206;-6.106;2023-07-29T11:35:06;100085.78;;;24.27;48.04
58698;BME280;44475;53.206;-6.106;2023-07-29T11:37:34;100081.44;;;24.16;47.93
58698;BME280;44475;53.206;-6.106;2023-07-29T11:40:01;100095.28;;;24.14;48.26
58698;BME280;44475;53.206;-6.106;2023-07-29T11:42:28;100084.91;;;24.26;48.31
58698;BME280;44475;53.206;-6.106;2023-07-29T11:44:58;100083.19;;;24.25;48.25
58698;BME280;44475;53.206;-6.106;2023-07-29T11:47:25;100081.72;;;24.31;47.84
58698;BME280;44475;53.206;-6.106;2023-07-29T11:49:52;100083.25;;;24.34;47.48
58698;BME280;44475;53.206;-6.106;2023-07-29T11:52:19;100089.50;;;24.17;47.94
58698;BME280;44475;53.206;-6.106;2023-07-29T11:54:49;100095.28;;;24.14;48.41
58698;BME280;44475;53.206;-6.106;2023-07-29T11:57:18;100086.41;;;24.21;47.76
58698;BME280;44475;53.206;-6.106;2023-07-29T11:59:46;100084.75;;;24.55;47.87
58698;BME280;44475;53.206;-6.106;2023-07-29T12:02:17;100082.69;;;25.01;47.04
58698;BME280;44475;53.206;-6.106;2023-07-29T12:04:47;100089.22;;;25.08;46.78
58698;BME280;44475;53.206;-6.106;2023-07-29T12:07:14;100084.66;;;25.17;46.84
58698;BME280;44475;53.206;-6.106;2023-07-29T12:09:41;100081.09;;;25.33;46.29
58698;BME280;44475;53.206;-6.106;2023-07-29T12:12:08;100077.81;;;25.30;46.55
58698;BME280;44475;53.206;-6.106;2023-07-29T12:14:35;100063.38;;;25.11;46.57
58698;BME280;44475;53.206;-6.106;2023-07-29T12:17:03;100095.16;;;24.86;46.96
58698;BME280;44475;53.206;-6.106;2023-07-29T12:19:38;100095.00;;;24.88;47.29
58698;BME280;44475;53.206;-6.106;2023-07-29T12:22:06;100095.44;;;25.18;46.66
58698;BME280;44475;53.206;-6.106;2023-07-29T12:24:35;100090.38;;;24.88;47.19
58698;BME280;44475;53.206;-6.106;2023-07-29T12:27:01;100079.81;;;25.02;47.37
58698;BME280;44475;53.206;-6.106;2023-07-29T12:29:28;100088.94;;;25.28;46.42
58698;BME280;44475;53.206;-6.106;2023-07-29T12:31:59;100094.13;;;25.40;46.61
58698;BME280;44475;53.206;-6.106;2023-07-29T12:34:27;100083.84;;;25.50;46.20
58698;BME280;44475;53.206;-6.106;2023-07-29T12:36:55;100082.28;;;25.47;46.08
58698;BME280;44475;53.206;-6.106;2023-07-29T12:39:33;100076.84;;;25.56;46.23
58698;BME280;44475;53.206;-6.106;2023-07-29T12:42:00;100071.34;;;25.64;46.12
58698;BME280;44475;53.206;-6.106;2023-07-29T12:44:32;100072.00;;;25.58;46.22
58698;BME280;44475;53.206;-6.106;2023-07-29T12:47:00;100068.44;;;25.66;46.09
58698;BME280;44475;53.206;-6.106;2023-07-29T12:49:26;100071.19;;;25.66;46.15
58698;BME280;44475;53.206;-6.106;2023-07-29T12:51:54;100084.53;;;25.69;45.90
58698;BME280;44475;53.206;-6.106;2023-07-29T12:54:20;100086.94;;;25.72;45.82
58698;BME280;44475;53.206;-6.106;2023-07-29T12:56:47;100088.81;;;25.72;46.26
58698;BME280;44475;53.206;-6.106;2023-07-29T12:59:13;100090.22;;;25.76;46.11
58698;BME280;44475;53.206;-6.106;2023-07-29T13:01:40;100091.75;;;25.78;46.10
58698;BME280;44475;53.206;-6.106;2023-07-29T13:04:06;100100.31;;;25.75;45.85
58698;BME280;44475;53.206;-6.106;2023-07-29T13:06:32;100110.56;;;25.40;46.34